This is the latest recevied weather packets stored in our database for station/object W0JRT-6. If no packets are shown the sender has not sent any weather packets the latest 10 day(s).
| Time | Temp. | Humidity | Pressure | Rain* | Wind** | Luminosity | Snow |
|---|---|---|---|---|---|---|---|
| 1777888798 | 13.33° C | 77% | 1001.6 hPa | 0 mm | - | - | - |
| 1777888198 | 13.89° C | 78% | 1001.5 hPa | 0 mm | - | - | - |
| 1777887603 | 14.44° C | 72% | 1001.7 hPa | 0 mm | - | - | - |
| 1777887009 | 15° C | 70% | 1001.7 hPa | 0 mm | - | - | - |
| 1777886406 | 15.56° C | 66% | 1001.4 hPa | 0 mm | - | - | - |
| 1777885808 | 15.56° C | 65% | 1001.3 hPa | 0 mm | - | - | - |
| 1777885198 | 16.67° C | 62% | 1001.3 hPa | 0 mm | - | - | - |
| 1777884598 | 17.22° C | 58% | 1001.4 hPa | 0 mm | - | - | - |
| 1777883998 | 18.33° C | 55% | 1001.3 hPa | 0 mm | - | - | - |
| 1777883405 | 18.33° C | 54% | 1001.3 hPa | 0 mm | - | - | - |
| 1777882805 | 18.33° C | 54% | 1001.2 hPa | 0 mm | - | - | - |
| 1777882213 | 18.89° C | 53% | 1001.4 hPa | 0 mm | - | - | - |
| 1777881604 | 18.89° C | 52% | 1001.5 hPa | 0 mm | - | - | - |
| 1777881001 | 18.89° C | 52% | 1001.5 hPa | 0 mm | - | - | - |
| 1777879799 | 18.89° C | 52% | 1001.7 hPa | 0 mm | - | - | - |
| 1777879201 | 19.44° C | 49% | 1001.8 hPa | 0 mm | - | - | - |
| 1777878604 | 19.44° C | 49% | 1001.9 hPa | 0 mm | - | - | - |
| 1777878005 | 20° C | 47% | 1002 hPa | 0 mm | - | - | - |
| 1777877410 | 20.56° C | 46% | 1002.3 hPa | 0 mm | - | - | - |
| 1777876803 | 20.56° C | 45% | 1002.3 hPa | 0 mm | - | - | - |
| 1777876202 | 21.11° C | 43% | 1002.5 hPa | 0 mm | - | - | - |
| 1777874999 | 20.56° C | 46% | 1003 hPa | 0 mm | - | - | - |
| 1777874399 | 19.44° C | 49% | 1003 hPa | 0 mm | - | - | - |
| 1777873806 | 17.78° C | 60% | 1003.2 hPa | 0 mm | - | - | - |
| 1777873213 | 16.67° C | 66% | 1003.3 hPa | 0 mm | - | - | - |
* Rain since midnight (hover to see other rain measurements)
** Current wind speed in m/s (hover to see current wind gust speed)